Time;durP1;ratioP1;P1;durP2;ratioP2;P2;SDS_P1;SDS_P2;PMS_P1;PMS_P2;Temp;Humidity;BMP_temperature;BMP_pressure;BME280_temperature;BME280_humidity;BME280_pressure;Samples;Min_cycle;Max_cycle;Signal;HPM_P1;HPM_P2
2021/11/27 00:00:00;;;;;;;1.20;0.90;;;5.40;99.90;;;;;;5034038;28;20867;-70
2021/11/27 00:04:51;;;;;;;1.57;1.20;;;5.50;99.90;;;;;;5007065;22;20294;-68
2021/11/27 00:07:17;;;;;;;1.30;1.20;;;5.40;99.90;;;;;;4997327;28;20195;-69
2021/11/27 00:09:43;;;;;;;1.40;1.30;;;5.40;99.90;;;;;;4997088;28;20182;-69
2021/11/27 00:12:09;;;;;;;1.30;1.20;;;5.40;99.90;;;;;;4979411;28;20180;-69
2021/11/27 00:14:35;;;;;;;1.27;1.20;;;5.40;99.90;;;;;;4997003;28;20603;-69
2021/11/27 00:17:02;;;;;;;1.20;1.10;;;5.50;99.90;;;;;;4996227;28;20423;-69
2021/11/27 00:19:28;;;;;;;1.40;1.30;;;5.60;99.90;;;;;;4996831;28;20428;-69
2021/11/27 00:21:54;;;;;;;1.20;1.10;;;5.60;99.90;;;;;;4996827;28;20411;-70
2021/11/27 00:24:20;;;;;;;1.33;1.20;;;5.60;99.90;;;;;;4981443;28;20207;-69
2021/11/27 00:26:45;;;;;;;1.00;1.00;;;5.50;99.90;;;;;;4995253;28;20741;-68
2021/11/27 00:29:11;;;;;;;1.30;1.20;;;5.50;99.90;;;;;;4994843;28;20419;-69
2021/11/27 00:31:39;;;;;;;1.53;1.43;;;5.50;99.90;;;;;;4996908;28;20176;-70
2021/11/27 00:34:04;;;;;;;1.27;1.17;;;5.40;99.90;;;;;;4996465;28;20207;-69
2021/11/27 00:36:30;;;;;;;1.57;1.47;;;5.40;99.90;;;;;;4996033;28;20411;-68
2021/11/27 00:38:56;;;;;;;1.37;1.37;;;5.40;99.90;;;;;;4995826;28;20576;-68
2021/11/27 00:41:22;;;;;;;1.47;1.37;;;5.50;99.90;;;;;;4978704;28;20204;-68
2021/11/27 00:43:48;;;;;;;1.53;1.43;;;5.50;99.90;;;;;;4996571;28;20191;-73
2021/11/27 00:46:14;;;;;;;1.77;1.13;;;5.40;99.90;;;;;;4995962;28;20495;-68
2021/11/27 00:48:40;;;;;;;1.40;1.30;;;5.40;99.90;;;;;;4979608;28;20180;-69
2021/11/27 00:51:13;;;;;;;1.40;1.30;;;5.40;99.90;;;;;;4995944;28;20840;-69
2021/11/27 00:53:39;;;;;;;1.10;1.10;;;5.40;99.90;;;;;;4996218;28;20435;-69
2021/11/27 00:56:06;;;;;;;1.00;1.00;;;5.40;99.90;;;;;;4978535;28;20415;-69
2021/11/27 00:58:32;;;;;;;1.30;1.20;;;5.40;99.90;;;;;;4995704;28;20459;-69
2021/11/27 01:01:02;;;;;;;1.43;1.33;;;5.40;99.90;;;;;;4995740;28;20418;-68
2021/11/27 01:03:31;;;;;;;1.10;1.07;;;5.30;99.90;;;;;;4995244;28;20462;-69
2021/11/27 01:05:59;;;;;;;1.80;1.70;;;5.30;99.90;;;;;;4995345;28;20408;-69
2021/11/27 01:08:26;;;;;;;1.10;1.10;;;5.30;99.90;;;;;;4978566;28;20415;-69
2021/11/27 01:10:56;;;;;;;1.27;1.17;;;5.20;99.90;;;;;;4995429;28;20546;-69
2021/11/27 01:13:22;;;;;;;1.70;1.60;;;5.30;99.90;;;;;;4995481;28;20443;-69
2021/11/27 01:15:48;;;;;;;1.30;1.20;;;5.30;99.90;;;;;;4995146;28;21340;-69
2021/11/27 01:18:15;;;;;;;1.33;1.27;;;5.20;99.90;;;;;;4995547;28;20223;-69
2021/11/27 01:20:45;;;;;;;1.30;1.20;;;5.20;99.90;;;;;;4995776;28;20207;-69
2021/11/27 01:23:11;;;;;;;1.03;1.03;;;5.20;99.90;;;;;;4995244;28;21202;-69
2021/11/27 01:25:37;;;;;;;1.20;1.20;;;5.20;99.90;;;;;;4995055;28;20491;-68
2021/11/27 01:28:03;;;;;;;1.20;1.20;;;5.20;99.90;;;;;;4995343;28;20411;-69
2021/11/27 01:30:29;;;;;;;1.50;1.40;;;5.10;99.90;;;;;;4996772;28;20408;-69
2021/11/27 01:32:55;;;;;;;1.50;1.40;;;5.10;99.90;;;;;;4995815;28;20526;-69
2021/11/27 01:35:21;;;;;;;1.23;1.23;;;5.10;99.90;;;;;;4995688;28;20184;-68
2021/11/27 01:37:47;;;;;;;1.70;1.60;;;5.10;99.90;;;;;;4994895;28;20541;-69
2021/11/27 01:40:19;;;;;;;1.60;1.50;;;5.00;99.90;;;;;;4995598;28;20173;-69
2021/11/27 01:42:45;;;;;;;1.70;1.60;;;5.00;99.90;;;;;;4995761;28;20432;-68
2021/11/27 01:45:12;;;;;;;1.63;1.53;;;5.10;99.90;;;;;;4995818;28;20458;-69
2021/11/27 01:47:38;;;;;;;1.77;1.67;;;5.10;99.90;;;;;;4995106;28;20419;-69
2021/11/27 01:50:05;;;;;;;1.50;1.40;;;5.10;99.90;;;;;;4994774;28;20911;-68
2021/11/27 01:52:31;;;;;;;1.30;1.30;;;5.10;99.90;;;;;;4978036;28;20639;-68
2021/11/27 01:54:57;;;;;;;1.20;1.20;;;5.10;99.90;;;;;;4994561;28;20427;-69
2021/11/27 01:57:23;;;;;;;1.10;1.10;;;5.10;99.90;;;;;;4977154;28;20817;-69
2021/11/27 01:59:48;;;;;;;1.20;1.20;;;5.00;99.90;;;;;;4995210;28;20178;-68
2021/11/27 02:02:15;;;;;;;1.20;1.20;;;5.10;99.90;;;;;;4995420;28;20408;-68
2021/11/27 02:04:42;;;;;;;1.30;1.30;;;5.10;99.90;;;;;;4994710;28;20282;-68
2021/11/27 02:07:07;;;;;;;1.10;1.10;;;5.10;99.90;;;;;;4994124;28;20423;-68
2021/11/27 02:09:35;;;;;;;1.73;1.60;;;5.10;99.90;;;;;;4994536;28;20414;-68
2021/11/27 02:12:03;;;;;;;1.57;1.47;;;5.10;99.90;;;;;;4976846;28;20270;-68
2021/11/27 02:14:29;;;;;;;1.30;1.20;;;5.10;99.90;;;;;;4994143;28;20427;-68
2021/11/27 02:16:55;;;;;;;1.50;1.40;;;5.20;99.90;;;;;;4993518;28;20430;-69
2021/11/27 02:19:20;;;;;;;1.40;1.30;;;5.10;99.90;;;;;;4976511;28;20422;-69
2021/11/27 02:21:47;;;;;;;1.20;1.10;;;5.20;99.90;;;;;;4993376;28;20175;-69
2021/11/27 02:24:15;;;;;;;1.50;1.40;;;5.30;99.90;;;;;;4994559;28;20199;-69
2021/11/27 02:26:41;;;;;;;1.43;1.30;;;5.20;99.90;;;;;;4992915;28;20435;-70
2021/11/27 02:29:21;;;;;;;1.60;1.50;;;5.10;99.90;;;;;;4994691;28;20415;-69
2021/11/27 02:31:47;;;;;;;1.60;1.50;;;5.10;99.90;;;;;;4994507;28;20829;-68
2021/11/27 02:34:13;;;;;;;1.30;1.20;;;5.20;99.90;;;;;;4994423;28;20946;-68
2021/11/27 02:36:41;;;;;;;1.10;1.10;;;5.20;99.90;;;;;;4993999;28;20411;-68
2021/11/27 02:39:10;;;;;;;1.00;1.00;;;5.20;99.90;;;;;;4993427;28;20486;-68
2021/11/27 02:41:36;;;;;;;1.20;1.10;;;5.20;99.90;;;;;;4993773;28;20420;-68
2021/11/27 02:44:02;;;;;;;1.20;1.10;;;5.20;99.90;;;;;;4993764;28;20431;-69
2021/11/27 02:46:28;;;;;;;1.03;1.03;;;5.20;99.90;;;;;;4970455;28;20455;-68
2021/11/27 02:48:53;;;;;;;1.50;1.30;;;5.20;99.90;;;;;;4982094;28;20498;-68
2021/11/27 02:51:20;;;;;;;1.40;1.30;;;5.20;99.90;;;;;;4974751;28;20184;-68
2021/11/27 02:53:45;;;;;;;1.17;1.07;;;5.20;99.90;;;;;;4993680;28;20196;-69
2021/11/27 02:56:11;;;;;;;1.20;1.10;;;5.30;99.90;;;;;;4993356;28;20506;-69
2021/11/27 02:58:37;;;;;;;1.53;1.27;;;5.30;99.90;;;;;;4993054;28;20979;-69
2021/11/27 03:01:06;;;;;;;1.30;1.23;;;5.30;99.90;;;;;;4993665;28;20186;-68
2021/11/27 03:03:34;;;;;;;1.10;1.10;;;5.30;99.90;;;;;;4994890;28;20224;-69
2021/11/27 03:06:00;;;;;;;1.43;1.30;;;5.30;99.90;;;;;;4997373;28;20442;-67
2021/11/27 03:08:26;;;;;;;1.20;1.10;;;5.30;99.90;;;;;;4996375;28;20423;-70
2021/11/27 03:10:52;;;;;;;1.40;1.30;;;5.30;99.90;;;;;;4995205;28;20597;-69
2021/11/27 03:13:28;;;;;;;1.60;1.50;;;5.30;99.90;;;;;;4995194;28;20595;-69
2021/11/27 03:15:54;;;;;;;2.33;2.00;;;5.40;99.90;;;;;;4977026;28;20172;-69
2021/11/27 03:18:20;;;;;;;1.43;1.33;;;5.40;99.90;;;;;;4994387;28;20481;-70
2021/11/27 03:20:46;;;;;;;1.73;1.63;;;5.40;99.90;;;;;;4993994;28;20411;-69
2021/11/27 03:23:11;;;;;;;1.53;1.43;;;5.50;99.90;;;;;;4994175;28;20196;-70
2021/11/27 03:25:37;;;;;;;1.40;1.30;;;5.50;99.90;;;;;;4976412;28;20180;-69
2021/11/27 03:28:03;;;;;;;1.70;1.40;;;5.50;99.90;;;;;;4993895;28;20259;-69
2021/11/27 03:30:29;;;;;;;1.87;1.70;;;5.40;99.90;;;;;;4993429;28;20212;-69
2021/11/27 03:32:54;;;;;;;1.63;1.53;;;5.50;99.90;;;;;;4992845;28;20435;-69
2021/11/27 03:35:20;;;;;;;4.00;2.07;;;5.50;99.90;;;;;;4992993;28;20536;-68
2021/11/27 03:37:47;;;;;;;2.00;1.90;;;5.50;99.90;;;;;;4992964;28;20214;-68
2021/11/27 03:40:13;;;;;;;2.53;2.33;;;5.50;99.90;;;;;;4976677;28;20470;-69
2021/11/27 03:42:39;;;;;;;2.30;2.10;;;5.50;99.90;;;;;;4993355;28;20446;-69
2021/11/27 03:45:07;;;;;;;2.50;2.30;;;5.50;99.90;;;;;;4993295;28;20463;-68
2021/11/27 03:47:33;;;;;;;2.17;2.07;;;5.50;99.90;;;;;;4992605;28;20176;-69
2021/11/27 03:49:58;;;;;;;2.40;2.20;;;5.50;99.90;;;;;;4993578;28;20423;-70
2021/11/27 03:52:24;;;;;;;2.90;2.60;;;5.60;99.90;;;;;;4994033;28;20191;-69
2021/11/27 03:54:50;;;;;;;2.50;2.30;;;5.50;99.90;;;;;;4989186;28;20205;-69
2021/11/27 03:57:17;;;;;;;2.30;2.20;;;5.50;99.90;;;;;;4980910;28;20526;-69
2021/11/27 03:59:42;;;;;;;2.10;2.00;;;5.50;99.90;;;;;;4985632;28;20438;-69
2021/11/27 04:02:08;;;;;;;2.43;2.23;;;5.50;99.90;;;;;;4993552;28;20908;-69
2021/11/27 04:04:35;;;;;;;2.70;2.50;;;5.50;99.90;;;;;;4993871;28;20266;-69
2021/11/27 04:07:01;;;;;;;2.73;2.53;;;5.50;99.90;;;;;;4994175;28;20573;-69
2021/11/27 04:09:27;;;;;;;3.10;2.83;;;5.40;99.90;;;;;;4994970;28;20435;-70
2021/11/27 04:11:52;;;;;;;4.70;4.20;;;5.40;99.90;;;;;;4995168;28;20855;-69
2021/11/27 04:14:18;;;;;;;5.30;4.73;;;5.40;99.90;;;;;;4995258;28;20439;-69
2021/11/27 04:16:43;;;;;;;6.03;5.40;;;5.30;99.90;;;;;;4976381;28;20199;-69
2021/11/27 04:19:09;;;;;;;5.37;4.87;;;5.30;99.90;;;;;;4976032;28;20211;-69
2021/11/27 04:21:35;;;;;;;5.60;5.10;;;5.10;99.90;;;;;;4993256;28;20176;-69
2021/11/27 04:24:00;;;;;;;5.33;4.83;;;5.20;99.90;;;;;;4992916;28;20208;-69
2021/11/27 04:26:26;;;;;;;6.57;5.80;;;5.00;99.90;;;;;;4993961;28;20188;-69
2021/11/27 04:28:53;;;;;;;7.20;6.43;;;4.90;99.90;;;;;;4997855;28;20180;-69
2021/11/27 04:31:19;;;;;;;6.83;6.17;;;4.80;99.90;;;;;;5010966;28;20326;-69
2021/11/27 04:33:46;;;;;;;6.40;5.77;;;4.70;99.90;;;;;;5011950;28;20458;-69
2021/11/27 04:36:13;;;;;;;5.93;5.33;;;4.70;99.90;;;;;;5010775;28;20830;-69
2021/11/27 04:38:38;;;;;;;6.30;4.63;;;4.60;99.90;;;;;;5010634;28;20438;-70
2021/11/27 04:41:04;;;;;;;4.13;3.80;;;4.60;99.90;;;;;;4997152;28;20443;-69
2021/11/27 04:43:30;;;;;;;5.87;4.90;;;4.70;99.90;;;;;;4992671;28;20205;-69
2021/11/27 04:45:55;;;;;;;4.40;4.00;;;4.70;99.90;;;;;;4995856;28;20238;-69
2021/11/27 04:48:21;;;;;;;5.20;4.70;;;4.80;99.90;;;;;;4998266;28;20191;-69
2021/11/27 04:50:47;;;;;;;4.63;4.10;;;4.80;99.90;;;;;;4997374;28;20263;-69
2021/11/27 04:53:14;;;;;;;4.83;3.83;;;4.90;99.90;;;;;;4998331;28;20203;-69
2021/11/27 04:55:40;;;;;;;4.60;4.07;;;4.90;99.90;;;;;;5003002;28;20782;-69
2021/11/27 04:58:06;;;;;;;4.73;4.23;;;4.80;99.90;;;;;;5012456;28;20465;-69
2021/11/27 05:00:37;;;;;;;4.30;3.90;;;4.70;99.90;;;;;;5010206;28;20418;-69
2021/11/27 05:03:03;;;;;;;4.10;3.70;;;4.50;99.90;;;;;;5007575;28;20461;-69
2021/11/27 05:05:29;;;;;;;5.40;4.20;;;4.60;99.90;;;;;;5007624;28;20838;-68
2021/11/27 05:07:56;;;;;;;4.77;4.23;;;4.60;99.90;;;;;;5005645;28;20453;-69
2021/11/27 05:10:22;;;;;;;4.43;4.03;;;4.60;99.90;;;;;;4993261;28;20187;-69
2021/11/27 05:12:48;;;;;;;4.87;3.93;;;4.70;99.90;;;;;;4999188;28;20462;-69
2021/11/27 05:15:14;;;;;;;4.30;3.90;;;4.60;99.90;;;;;;4988563;28;20546;-69
2021/11/27 05:17:40;;;;;;;4.20;3.80;;;4.50;99.90;;;;;;4998022;28;20472;-69
2021/11/27 05:20:07;;;;;;;4.50;3.60;;;4.60;99.90;;;;;;4996091;28;20411;-70
2021/11/27 05:22:32;;;;;;;4.00;3.57;;;4.70;99.90;;;;;;4995703;28;20473;-69
2021/11/27 05:24:59;;;;;;;4.00;3.63;;;4.60;99.90;;;;;;4995829;28;20421;-69
2021/11/27 05:27:26;;;;;;;3.90;3.50;;;4.50;99.90;;;;;;4995629;28;20258;-69
2021/11/27 05:29:51;;;;;;;4.87;4.37;;;4.50;99.90;;;;;;4995432;28;20419;-69
2021/11/27 05:32:24;;;;;;;8.80;4.57;;;4.60;99.90;;;;;;4995025;28;20780;-69
2021/11/27 05:34:50;;;;;;;4.80;4.27;;;4.60;99.90;;;;;;4994900;28;20214;-69
2021/11/27 05:37:16;;;;;;;5.10;4.70;;;4.60;99.90;;;;;;4994910;28;20415;-69
2021/11/27 05:39:43;;;;;;;4.70;4.20;;;4.60;99.90;;;;;;4977364;28;20513;-69
2021/11/27 05:42:10;;;;;;;6.00;4.77;;;4.60;99.90;;;;;;4995162;28;20923;-69
2021/11/27 05:44:36;;;;;;;5.90;5.10;;;4.70;99.90;;;;;;4994863;28;20445;-69
2021/11/27 05:47:02;;;;;;;6.00;5.20;;;4.80;99.90;;;;;;4994242;28;20494;-69
2021/11/27 05:49:28;;;;;;;9.03;6.80;;;4.80;99.90;;;;;;4977192;28;20229;-69
2021/11/27 05:51:53;;;;;;;7.37;6.23;;;4.70;99.90;;;;;;4977536;28;20427;-69
2021/11/27 05:54:19;;;;;;;8.43;6.80;;;4.70;99.90;;;;;;4995041;28;20859;-69
2021/11/27 05:56:44;;;;;;;10.53;7.33;;;4.80;99.90;;;;;;4994371;28;20206;-69
2021/11/27 05:59:10;;;;;;;8.07;6.20;;;4.70;99.90;;;;;;4995185;28;20227;-69
2021/11/27 06:01:36;;;;;;;8.00;5.93;;;4.60;99.90;;;;;;4995663;28;20511;-69
2021/11/27 06:04:01;;;;;;;8.60;6.20;;;4.70;99.90;;;;;;5033007;22;20225;-69
2021/11/27 06:06:27;;;;;;;8.10;6.60;;;4.70;99.90;;;;;;5041084;28;20186;-69
2021/11/27 06:08:53;;;;;;;8.53;7.17;;;4.70;99.90;;;;;;5053453;28;20224;-69
2021/11/27 06:11:18;;;;;;;6.97;6.13;;;4.80;99.90;;;;;;5053745;28;20174;-69
2021/11/27 06:13:44;;;;;;;7.60;5.80;;;4.70;99.90;;;;;;5053527;28;20483;-70
2021/11/27 06:16:09;;;;;;;6.17;5.23;;;4.80;99.90;;;;;;5052701;28;20182;-70
2021/11/27 06:18:36;;;;;;;7.33;5.73;;;4.70;99.90;;;;;;5053266;28;20613;-70
2021/11/27 06:21:03;;;;;;;7.70;5.93;;;4.70;99.90;;;;;;5053405;28;20170;-70
2021/11/27 06:23:29;;;;;;;8.30;6.70;;;4.70;99.90;;;;;;5053272;28;20428;-68
2021/11/27 06:25:55;;;;;;;8.07;6.10;;;4.70;99.90;;;;;;5052571;28;20430;-68
2021/11/27 06:28:21;;;;;;;8.07;6.57;;;4.60;99.90;;;;;;5052538;28;20459;-70
2021/11/27 06:30:48;;;;;;;10.90;6.60;;;4.60;99.90;;;;;;5049131;28;20461;-69
2021/11/27 06:33:13;;;;;;;8.33;6.57;;;4.60;99.90;;;;;;5049433;28;20459;-69
2021/11/27 06:35:39;;;;;;;11.27;6.80;;;4.70;99.90;;;;;;5052529;28;20515;-69
2021/11/27 06:38:04;;;;;;;7.97;6.13;;;4.70;99.90;;;;;;5052689;28;20252;-70
2021/11/27 06:40:30;;;;;;;8.70;6.50;;;4.70;99.90;;;;;;5050737;28;20213;-70
2021/11/27 06:43:00;;;;;;;8.63;6.43;;;4.80;99.90;;;;;;5042536;28;20198;-67
2021/11/27 06:45:26;;;;;;;10.03;7.03;;;4.80;99.90;;;;;;5043431;28;20208;-71
2021/11/27 06:47:51;;;;;;;7.73;5.47;;;4.80;99.90;;;;;;5049257;28;20904;-69
2021/11/27 06:50:17;;;;;;;9.47;6.70;;;4.80;99.90;;;;;;5053066;28;20190;-71
2021/11/27 06:52:43;;;;;;;6.87;5.70;;;4.80;99.90;;;;;;5052794;28;20182;-71
2021/11/27 06:55:09;;;;;;;8.97;6.43;;;4.90;99.90;;;;;;5053305;28;20190;-69
2021/11/27 06:57:34;;;;;;;9.60;7.10;;;5.00;99.90;;;;;;5053648;28;20441;-70
2021/11/27 07:00:00;;;;;;;8.80;7.50;;;5.00;99.90;;;;;;5050592;28;20209;-70
2021/11/27 07:02:26;;;;;;;9.57;7.53;;;5.00;99.90;;;;;;5053049;28;20181;-70
2021/11/27 07:04:51;;;;;;;10.10;7.73;;;5.00;99.90;;;;;;5053190;28;20952;-70
2021/11/27 07:07:17;;;;;;;9.50;7.70;;;5.10;99.90;;;;;;5047361;28;20231;-70
2021/11/27 07:09:43;;;;;;;11.53;7.17;;;5.10;99.90;;;;;;5051309;28;20174;-70
2021/11/27 07:12:08;;;;;;;8.03;6.37;;;5.10;99.90;;;;;;5047985;28;20257;-69
2021/11/27 07:14:34;;;;;;;9.30;7.13;;;5.20;99.90;;;;;;5052145;28;20201;-70
2021/11/27 07:17:00;;;;;;;8.10;6.70;;;5.10;99.90;;;;;;5052100;28;20193;-72
2021/11/27 07:19:25;;;;;;;9.23;7.70;;;5.00;99.90;;;;;;5053691;28;20769;-70
2021/11/27 07:21:51;;;;;;;10.17;7.07;;;5.10;99.90;;;;;;5043270;28;20230;-70
2021/11/27 07:24:16;;;;;;;9.20;6.53;;;5.10;99.90;;;;;;5052920;28;20218;-69
2021/11/27 07:26:42;;;;;;;8.87;7.30;;;5.10;99.90;;;;;;5055911;28;20209;-69
2021/11/27 07:29:08;;;;;;;10.80;8.30;;;5.20;99.90;;;;;;5052086;28;20275;-71
2021/11/27 07:31:33;;;;;;;7.90;6.60;;;5.20;99.90;;;;;;5063920;28;20205;-70
2021/11/27 07:33:59;;;;;;;9.30;7.33;;;5.20;99.90;;;;;;5061035;28;20233;-71
2021/11/27 07:36:24;;;;;;;9.60;7.33;;;5.20;99.90;;;;;;5048854;28;20190;-70
2021/11/27 07:38:50;;;;;;;8.43;7.43;;;5.20;99.90;;;;;;5045892;28;20221;-71
2021/11/27 07:41:16;;;;;;;10.93;7.70;;;5.20;99.90;;;;;;5046894;28;20206;-70
2021/11/27 07:43:41;;;;;;;10.67;7.23;;;5.30;99.90;;;;;;5051755;28;20629;-69
2021/11/27 07:46:07;;;;;;;11.17;8.37;;;5.30;99.90;;;;;;5053097;28;20198;-70
2021/11/27 07:48:33;;;;;;;9.37;7.43;;;5.20;99.90;;;;;;5052969;28;20218;-70
2021/11/27 07:51:02;;;;;;;10.50;8.10;;;5.10;99.90;;;;;;5046886;28;20193;-70
2021/11/27 07:53:28;;;;;;;10.13;8.60;;;5.10;99.90;;;;;;5058268;28;20444;-70
2021/11/27 07:55:54;;;;;;;10.37;6.90;;;5.20;99.90;;;;;;5054343;28;20425;-70
2021/11/27 07:58:20;;;;;;;11.67;7.10;;;5.20;99.90;;;;;;5056416;28;20220;-70
2021/11/27 08:00:46;;;;;;;10.60;7.27;;;5.30;99.90;;;;;;5075481;28;20262;-69
2021/11/27 08:03:11;;;;;;;8.70;6.73;;;5.30;99.90;;;;;;5074939;28;20408;-70
2021/11/27 08:05:37;;;;;;;11.20;7.53;;;5.30;99.90;;;;;;5071745;28;20663;-70
2021/11/27 08:08:03;;;;;;;8.93;7.40;;;5.30;99.90;;;;;;5055751;28;20177;-72
2021/11/27 08:10:29;;;;;;;12.57;7.57;;;5.20;99.90;;;;;;5055508;28;20683;-71
2021/11/27 08:12:54;;;;;;;11.10;7.93;;;5.20;99.90;;;;;;5055807;28;20212;-70
2021/11/27 08:15:20;;;;;;;11.33;7.47;;;5.30;99.90;;;;;;5055742;28;20198;-70
2021/11/27 08:17:45;;;;;;;10.40;7.90;;;5.20;99.90;;;;;;5050805;28;20217;-71
2021/11/27 08:20:11;;;;;;;10.73;8.40;;;5.10;99.90;;;;;;5056676;28;20178;-69
2021/11/27 08:22:40;;;;;;;10.23;7.70;;;5.20;99.90;;;;;;5059318;28;20174;-70
2021/11/27 08:25:06;;;;;;;10.60;8.37;;;5.10;99.90;;;;;;5058737;28;20561;-70
2021/11/27 08:27:33;;;;;;;12.70;9.20;;;5.20;99.90;;;;;;5058390;28;20420;-70
2021/11/27 08:29:59;;;;;;;11.00;9.40;;;5.10;99.90;;;;;;5058783;28;20443;-70
2021/11/27 08:32:25;;;;;;;11.80;8.67;;;5.10;99.90;;;;;;5058917;28;20444;-71
2021/11/27 08:34:51;;;;;;;12.30;9.40;;;5.20;99.90;;;;;;5058474;28;20767;-71
2021/11/27 08:37:16;;;;;;;12.90;9.67;;;5.20;99.90;;;;;;5057787;28;20182;-70
2021/11/27 08:39:42;;;;;;;13.43;10.27;;;5.20;99.90;;;;;;5058788;28;20257;-69
2021/11/27 08:42:08;;;;;;;10.73;8.63;;;5.20;99.90;;;;;;5058104;28;20707;-69
2021/11/27 08:44:33;;;;;;;11.17;8.67;;;5.10;99.90;;;;;;5057592;28;20272;-69
2021/11/27 08:46:59;;;;;;;12.00;9.80;;;5.10;99.90;;;;;;5058637;28;20562;-71
2021/11/27 08:49:25;;;;;;;13.30;9.60;;;5.10;99.90;;;;;;5058614;28;20578;-72
2021/11/27 08:51:50;;;;;;;15.13;10.23;;;5.20;99.90;;;;;;5066799;28;20272;-71
2021/11/27 08:54:16;;;;;;;12.13;9.20;;;5.20;99.90;;;;;;5057856;28;20197;-69
2021/11/27 08:56:42;;;;;;;13.47;9.23;;;5.20;99.90;;;;;;5039088;28;20182;-71
2021/11/27 08:59:08;;;;;;;16.33;10.17;;;5.10;99.90;;;;;;5057992;28;20206;-69
2021/11/27 09:01:34;;;;;;;14.07;10.20;;;5.20;99.90;;;;;;5057817;28;20419;-69
2021/11/27 09:04:00;;;;;;;16.63;10.37;;;5.20;99.90;;;;;;5058336;28;20213;-72
2021/11/27 09:06:26;;;;;;;14.03;9.57;;;5.20;99.90;;;;;;5056117;28;20468;-69
2021/11/27 09:08:52;;;;;;;12.53;9.03;;;5.40;99.90;;;;;;5058567;28;20177;-71
2021/11/27 09:11:19;;;;;;;14.20;10.37;;;5.50;99.90;;;;;;5075489;28;20412;-72
2021/11/27 09:13:47;;;;;;;11.60;8.50;;;5.50;99.90;;;;;;5058565;28;20448;-71
2021/11/27 09:16:12;;;;;;;16.70;9.80;;;5.60;99.90;;;;;;5058389;28;20454;-69
2021/11/27 09:18:38;;;;;;;11.83;9.10;;;5.70;99.90;;;;;;5058796;28;20469;-71
2021/11/27 09:21:04;;;;;;;15.10;10.43;;;5.70;99.90;;;;;;5058601;28;20800;-70
2021/11/27 09:23:29;;;;;;;13.13;9.60;;;5.60;99.90;;;;;;5058094;28;20190;-72
2021/11/27 09:25:56;;;;;;;12.27;8.47;;;5.60;99.90;;;;;;5040649;28;20591;-71
2021/11/27 09:28:22;;;;;;;13.83;10.00;;;5.60;99.90;;;;;;5058831;28;20174;-70
2021/11/27 09:30:48;;;;;;;11.73;9.47;;;5.70;99.90;;;;;;5058085;28;20909;-71
2021/11/27 09:33:14;;;;;;;12.30;8.83;;;5.60;99.90;;;;;;5058143;28;20573;-70
2021/11/27 09:35:47;;;;;;;14.00;9.50;;;5.70;99.90;;;;;;5057991;28;20421;-72
2021/11/27 09:38:13;;;;;;;15.10;10.20;;;5.60;99.90;;;;;;5058323;28;20198;-70
2021/11/27 09:40:39;;;;;;;14.63;9.97;;;5.70;99.90;;;;;;5059194;28;20588;-70
2021/11/27 09:43:06;;;;;;;13.57;10.37;;;5.80;99.90;;;;;;5058642;28;20179;-70
2021/11/27 09:45:33;;;;;;;12.70;8.77;;;5.80;99.90;;;;;;5057584;28;20452;-68
2021/11/27 09:48:00;;;;;;;11.30;9.47;;;5.80;99.90;;;;;;5058060;28;20427;-69
2021/11/27 09:50:25;;;;;;;13.33;9.20;;;5.80;99.90;;;;;;5066520;28;20424;-69
2021/11/27 09:52:52;;;;;;;11.53;8.80;;;5.70;99.90;;;;;;5063123;28;20558;-71
2021/11/27 09:55:19;;;;;;;9.70;8.73;;;5.60;99.90;;;;;;5058324;28;20194;-70
2021/11/27 09:57:50;;;;;;;10.37;9.17;;;5.60;99.90;;;;;;5058017;28;20464;-71
2021/11/27 10:00:18;;;;;;;12.73;8.70;;;5.60;99.90;;;;;;5058437;28;20408;-71
2021/11/27 10:02:45;;;;;;;13.60;9.20;;;5.70;99.90;;;;;;5058435;28;20421;-70
2021/11/27 10:05:13;;;;;;;16.90;10.00;;;5.80;99.90;;;;;;5059433;28;20483;-71
2021/11/27 10:07:40;;;;;;;12.23;8.50;;;5.90;99.90;;;;;;5057489;28;20450;-71
2021/11/27 10:10:07;;;;;;;12.67;8.13;;;5.90;99.90;;;;;;5058084;28;20544;-70
2021/11/27 10:12:33;;;;;;;11.77;8.77;;;6.00;99.90;;;;;;5057650;28;20425;-70
2021/11/27 10:14:59;;;;;;;12.87;10.20;;;5.90;99.90;;;;;;5057896;28;20436;-71
2021/11/27 10:17:30;;;;;;;10.63;7.77;;;6.00;99.90;;;;;;5058221;28;20489;-71
2021/11/27 10:19:59;;;;;;;11.60;7.17;;;6.00;99.90;;;;;;5057974;28;20174;-71
2021/11/27 10:22:39;;;;;;;9.67;7.83;;;6.00;99.90;;;;;;5057775;28;20409;-71
2021/11/27 10:25:23;;;;;;;10.97;7.27;;;6.00;99.90;;;;;;5056852;28;20432;-70
2021/11/27 10:27:50;;;;;;;11.53;8.00;;;5.90;99.90;;;;;;5056611;28;20420;-70
2021/11/27 10:30:15;;;;;;;14.23;8.47;;;5.80;99.90;;;;;;5057136;28;20420;-72
2021/11/27 10:32:43;;;;;;;13.10;8.97;;;5.70;99.90;;;;;;5057176;28;20424;-70
2021/11/27 10:35:12;;;;;;;11.43;8.07;;;5.80;99.90;;;;;;5057977;28;20213;-71
2021/11/27 10:37:43;;;;;;;9.60;7.33;;;5.90;99.90;;;;;;5057494;28;20451;-74
2021/11/27 10:40:16;;;;;;;10.50;7.27;;;5.90;99.90;;;;;;5057939;28;20801;-70
2021/11/27 10:42:49;;;;;;;11.10;8.07;;;6.00;99.90;;;;;;5057427;28;20424;-70
2021/11/27 10:45:23;;;;;;;11.47;7.10;;;6.00;99.90;;;;;;5057642;28;20936;-70
2021/11/27 10:47:52;;;;;;;11.33;7.13;;;5.90;99.90;;;;;;5057589;28;20416;-70
2021/11/27 10:50:20;;;;;;;9.77;6.33;;;5.90;99.90;;;;;;5064130;28;20424;-71
2021/11/27 10:52:51;;;;;;;11.43;7.13;;;5.90;99.90;;;;;;5058901;28;20448;-70
2021/11/27 10:55:27;;;;;;;9.07;6.53;;;5.80;99.90;;;;;;5057134;28;20445;-70
2021/11/27 10:57:59;;;;;;;17.67;8.20;;;5.80;99.90;;;;;;5056803;28;20462;-70
2021/11/27 11:00:30;;;;;;;7.67;6.43;;;5.90;99.90;;;;;;5057798;28;20412;-70
2021/11/27 11:02:57;;;;;;;10.00;6.37;;;6.00;99.90;;;;;;5057305;28;20431;-71
2021/11/27 11:05:34;;;;;;;8.90;6.10;;;5.90;99.90;;;;;;5039328;28;20813;-70
2021/11/27 11:08:01;;;;;;;10.83;7.30;;;5.80;99.90;;;;;;5058480;28;20433;-70
2021/11/27 11:10:32;;;;;;;8.97;5.90;;;5.80;99.90;;;;;;5057011;28;20413;-70
2021/11/27 11:13:01;;;;;;;9.47;5.50;;;5.80;99.90;;;;;;5057760;28;20425;-71
2021/11/27 11:15:40;;;;;;;10.00;6.87;;;5.60;99.90;;;;;;5057626;28;20474;-71
2021/11/27 11:18:15;;;;;;;11.53;5.97;;;5.60;99.90;;;;;;5056359;28;20487;-72
2021/11/27 11:20:45;;;;;;;9.70;5.83;;;5.70;99.90;;;;;;5056718;28;20495;-73
2021/11/27 11:23:30;;;;;;;12.10;6.03;;;5.70;99.90;;;;;;5057918;28;20459;-71
2021/11/27 11:26:31;;;;;;;7.70;5.30;;;5.80;99.90;;;;;;5058415;28;20417;-70
2021/11/27 11:28:57;;;;;;;11.37;6.00;;;5.80;99.90;;;;;;4957670;28;20437;-71
2021/11/27 11:31:27;;;;;;;12.93;6.87;;;5.70;99.90;;;;;;4957115;28;20547;-72
2021/11/27 11:33:56;;;;;;;9.40;6.30;;;5.70;99.90;;;;;;4958159;28;21008;-72
2021/11/27 11:36:23;;;;;;;9.83;5.50;;;5.80;99.90;;;;;;4957020;28;20425;-71
2021/11/27 11:38:55;;;;;;;10.00;5.87;;;5.80;99.90;;;;;;4953646;28;20473;-70
2021/11/27 11:41:23;;;;;;;10.27;6.50;;;5.70;99.90;;;;;;4955677;28;20492;-70
2021/11/27 11:43:50;;;;;;;9.70;6.10;;;5.70;99.90;;;;;;4956744;28;20452;-72
2021/11/27 11:46:17;;;;;;;11.53;5.50;;;5.60;99.90;;;;;;4958439;28;20520;-70
2021/11/27 11:48:56;;;;;;;7.90;5.53;;;5.70;99.90;;;;;;4958684;29;20494;-71
2021/11/27 11:51:47;;;;;;;9.70;5.40;;;5.80;99.90;;;;;;4964075;28;20501;-71
2021/11/27 11:54:14;;;;;;;10.30;6.10;;;5.80;99.90;;;;;;4959016;28;20449;-70
2021/11/27 11:56:44;;;;;;;11.63;5.80;;;5.80;99.90;;;;;;4961599;28;20448;-71
2021/11/27 11:59:27;;;;;;;7.47;4.83;;;5.70;99.90;;;;;;4962684;28;20472;-70
2021/11/27 12:02:13;;;;;;;15.93;7.07;;;5.70;99.90;;;;;;4961328;28;21040;-71
2021/11/27 12:04:59;;;;;;;14.37;5.93;;;5.60;99.90;;;;;;4982108;28;20463;-72
2021/11/27 12:10:21;;;;;;;9.57;6.43;;;5.70;99.90;;;;;;5069765;28;20446;-69
2021/11/27 12:13:05;;;;;;;9.77;6.07;;;5.80;99.90;;;;;;5068468;28;20419;-69
2021/11/27 12:15:32;;;;;;;12.27;6.93;;;5.90;99.90;;;;;;5077692;28;20408;-68
2021/11/27 12:18:16;;;;;;;12.43;6.80;;;6.00;99.90;;;;;;5077716;28;20477;-69
2021/11/27 12:20:56;;;;;;;10.07;6.00;;;6.00;99.90;;;;;;5077750;28;20424;-69
2021/11/27 12:23:42;;;;;;;12.23;6.00;;;6.00;99.90;;;;;;5070955;28;20416;-69
2021/11/27 12:26:08;;;;;;;10.50;5.80;;;6.10;99.90;;;;;;5076004;28;20416;-69
2021/11/27 12:28:40;;;;;;;9.77;5.73;;;6.20;99.90;;;;;;5077297;28;20769;-69
2021/11/27 12:31:11;;;;;;;10.07;5.70;;;6.40;99.90;;;;;;5076392;28;20420;-69
2021/11/27 12:34:01;;;;;;;9.57;6.77;;;6.50;99.90;;;;;;5075374;28;20436;-69
2021/11/27 12:36:30;;;;;;;10.57;5.20;;;6.50;99.90;;;;;;5057663;28;20427;-68
2021/11/27 12:39:29;;;;;;;15.20;5.50;;;6.50;99.90;;;;;;5076041;28;20563;-68
2021/11/27 12:42:04;;;;;;;10.57;4.33;;;6.60;99.90;;;;;;5075324;28;20489;-69
2021/11/27 12:44:51;;;;;;;8.27;4.50;;;6.70;99.90;;;;;;5075619;28;20423;-70
2021/11/27 12:47:16;;;;;;;5.60;4.53;;;6.70;99.90;;;;;;5074793;28;20912;-70
2021/11/27 12:49:45;;;;;;;7.97;4.43;;;6.60;99.90;;;;;;5077810;28;20436;-70
2021/11/27 12:52:13;;;;;;;5.87;4.17;;;6.50;99.90;;;;;;5079940;28;20174;-70
2021/11/27 12:55:08;;;;;;;9.03;4.30;;;6.60;99.90;;;;;;5054250;28;20417;-70
2021/11/27 12:57:45;;;;;;;8.07;4.53;;;6.60;99.90;;;;;;5031743;28;20424;-70
2021/11/27 13:00:19;;;;;;;12.50;4.70;;;6.50;99.90;;;;;;5075832;28;20412;-70